Time;durP1;ratioP1;P1;durP2;ratioP2;P2;SDS_P1;SDS_P2;PMS_P1;PMS_P2;Temp;Humidity;BMP_temperature;BMP_pressure;BME280_temperature;BME280_humidity;BME280_pressure;Samples;Min_cycle;Max_cycle;Signal;HPM_P1;HPM_P2
2022/01/27 00:00:46;;;;;;;77.18;16.77;;;6.30;99.90;;;;;;5016208;28;20484;-72
2022/01/27 00:05:39;;;;;;;61.58;17.70;;;6.30;99.90;;;;;;5016138;28;20513;-72
2022/01/27 00:08:15;;;;;;;73.15;17.85;;;6.30;99.90;;;;;;5015896;28;20093;-72
2022/01/27 00:13:14;;;;;;;70.00;19.38;;;6.30;99.90;;;;;;5015857;28;20037;-71
2022/01/27 00:15:41;;;;;;;63.95;16.73;;;6.30;99.90;;;;;;5015875;28;20470;-71
2022/01/27 00:18:16;;;;;;;65.65;18.63;;;6.40;99.90;;;;;;5015518;28;20025;-72
2022/01/27 00:20:42;;;;;;;54.90;18.95;;;6.40;99.90;;;;;;5015730;28;20026;-72
2022/01/27 00:23:08;;;;;;;51.97;17.55;;;6.40;99.90;;;;;;5015290;28;20076;-72
2022/01/27 00:25:34;;;;;;;74.93;17.73;;;6.40;99.90;;;;;;5015422;28;20029;-72
2022/01/27 00:28:00;;;;;;;65.13;17.13;;;6.40;99.90;;;;;;5015285;28;20018;-72
2022/01/27 00:30:25;;;;;;;82.95;17.98;;;6.40;99.90;;;;;;5014486;28;20037;-72
2022/01/27 00:32:51;;;;;;;69.85;17.50;;;6.40;99.90;;;;;;5014918;28;20030;-72
2022/01/27 00:35:17;;;;;;;65.38;16.15;;;6.40;99.90;;;;;;5015487;28;20040;-71
2022/01/27 00:37:43;;;;;;;89.90;19.15;;;6.40;99.90;;;;;;5015085;28;20033;-72
2022/01/27 00:40:11;;;;;;;75.40;18.90;;;6.40;99.90;;;;;;5015609;28;20018;-72
2022/01/27 00:42:38;;;;;;;74.05;19.83;;;6.40;99.90;;;;;;5014901;28;20382;-72
2022/01/27 00:45:04;;;;;;;78.30;20.52;;;6.40;99.90;;;;;;5014853;28;20183;-71
2022/01/27 00:47:30;;;;;;;68.15;19.58;;;6.30;99.90;;;;;;5015240;28;20468;-72
2022/01/27 00:49:56;;;;;;;70.07;21.92;;;6.30;99.90;;;;;;5014949;28;20110;-72
2022/01/27 00:52:32;;;;;;;81.38;25.08;;;6.40;99.90;;;;;;5015053;28;20034;-72
2022/01/27 00:54:58;;;;;;;86.95;23.95;;;6.40;99.90;;;;;;5014751;28;20033;-71
2022/01/27 00:57:40;;;;;;;76.90;23.33;;;6.30;99.90;;;;;;5014820;28;20030;-71
2022/01/27 01:00:08;;;;;;;93.32;26.20;;;6.30;99.90;;;;;;5015350;28;20053;-71
2022/01/27 01:02:51;;;;;;;85.72;25.05;;;6.30;99.90;;;;;;5014609;28;20493;-72
2022/01/27 01:07:50;;;;;;;80.65;27.42;;;6.30;99.90;;;;;;5014585;28;20398;-72
2022/01/27 01:15:46;;;;;;;92.95;27.58;;;6.30;99.90;;;;;;5014876;28;20040;-72
2022/01/27 01:21:01;;;;;;;84.63;25.33;;;6.30;99.90;;;;;;5014423;28;20425;-72
2022/01/27 01:31:53;;;;;;;98.07;25.52;;;6.20;99.90;;;;;;5014882;28;19912;-72
2022/01/27 01:34:25;;;;;;;110.28;27.45;;;6.10;99.90;;;;;;5014087;28;20026;-72
2022/01/27 01:37:03;;;;;;;100.05;27.73;;;6.10;99.90;;;;;;5014171;28;20033;-72
2022/01/27 01:39:33;;;;;;;107.00;28.48;;;6.10;99.90;;;;;;5014450;28;20017;-71
2022/01/27 01:42:00;;;;;;;123.53;32.28;;;6.00;99.90;;;;;;5013877;28;20061;-70
2022/01/27 01:44:26;;;;;;;112.80;32.15;;;6.00;99.90;;;;;;5013748;28;20030;-70
2022/01/27 01:46:53;;;;;;;118.78;29.73;;;5.90;99.90;;;;;;5013883;28;20029;-70
2022/01/27 01:49:22;;;;;;;123.03;32.00;;;5.90;99.90;;;;;;4996270;28;20079;-70
2022/01/27 01:51:49;;;;;;;134.88;32.25;;;5.90;99.90;;;;;;5014861;28;20358;-70
2022/01/27 01:54:15;;;;;;;115.78;32.38;;;5.90;99.90;;;;;;5013776;28;20029;-70
2022/01/27 01:56:42;;;;;;;134.68;33.08;;;5.80;99.90;;;;;;5013989;28;20022;-70
2022/01/27 01:59:08;;;;;;;116.18;32.30;;;5.80;99.90;;;;;;4996092;28;20062;-70
2022/01/27 02:01:36;;;;;;;123.10;33.28;;;5.80;99.90;;;;;;5013713;28;20470;-70
2022/01/27 02:04:06;;;;;;;140.07;36.67;;;5.80;99.90;;;;;;5013581;28;20026;-70
2022/01/27 02:06:38;;;;;;;136.77;36.50;;;5.80;99.90;;;;;;5013971;28;20386;-70
2022/01/27 02:09:16;;;;;;;140.93;36.95;;;5.80;99.90;;;;;;5013899;28;20458;-70
2022/01/27 02:19:56;;;;;;;134.10;37.22;;;5.80;99.90;;;;;;5014375;28;20080;-70
2022/01/27 02:22:22;;;;;;;126.32;37.60;;;5.80;99.90;;;;;;5013469;28;20034;-70
2022/01/27 02:24:49;;;;;;;138.02;40.10;;;5.80;99.90;;;;;;5013431;28;20018;-70
2022/01/27 02:27:15;;;;;;;138.15;40.40;;;5.80;99.90;;;;;;5013430;28;20431;-70
2022/01/27 02:29:41;;;;;;;141.65;39.30;;;5.80;99.90;;;;;;5013396;28;20105;-70
2022/01/27 02:32:07;;;;;;;156.80;38.65;;;5.80;99.90;;;;;;5013967;28;20100;-70
2022/01/27 02:34:34;;;;;;;141.95;39.30;;;5.80;99.90;;;;;;5013290;28;20080;-70
2022/01/27 02:36:59;;;;;;;147.88;41.92;;;5.80;99.90;;;;;;5013380;28;20026;-71
2022/01/27 02:39:26;;;;;;;159.75;41.17;;;5.80;99.90;;;;;;5013329;28;20105;-71
2022/01/27 02:42:16;;;;;;;147.98;44.58;;;5.80;99.90;;;;;;5013199;28;20030;-71
2022/01/27 02:44:47;;;;;;;166.32;39.92;;;5.80;99.90;;;;;;5013742;28;20085;-68
2022/01/27 02:47:15;;;;;;;162.60;43.75;;;5.90;99.90;;;;;;5013521;28;20026;-68
2022/01/27 02:49:41;;;;;;;163.48;41.42;;;5.80;99.90;;;;;;5013265;28;20022;-68
2022/01/27 02:52:07;;;;;;;160.88;42.92;;;5.80;99.90;;;;;;5013511;28;20088;-68
2022/01/27 02:54:32;;;;;;;148.68;40.15;;;5.90;99.90;;;;;;5014689;28;20441;-68
2022/01/27 02:56:58;;;;;;;176.77;42.25;;;5.90;99.90;;;;;;5016973;28;20084;-68
2022/01/27 02:59:24;;;;;;;169.30;40.70;;;5.90;99.90;;;;;;5016926;28;20087;-68
2022/01/27 03:01:50;;;;;;;164.65;41.03;;;5.90;99.90;;;;;;5017043;28;20022;-68
2022/01/27 03:04:17;;;;;;;147.65;41.60;;;5.90;99.90;;;;;;5016786;28;20101;-68
2022/01/27 03:06:45;;;;;;;165.50;40.30;;;5.90;99.90;;;;;;5016773;28;20109;-68
2022/01/27 03:09:10;;;;;;;163.70;40.85;;;5.90;99.90;;;;;;5016800;28;20485;-68
2022/01/27 03:11:46;;;;;;;165.23;40.10;;;5.90;99.90;;;;;;5016626;28;20041;-68
2022/01/27 03:14:14;;;;;;;169.38;38.63;;;5.90;99.90;;;;;;5016653;28;20026;-68
2022/01/27 03:16:39;;;;;;;153.35;35.70;;;5.90;99.90;;;;;;5016591;28;20036;-68
2022/01/27 03:19:05;;;;;;;149.60;37.20;;;5.90;99.90;;;;;;5016555;28;20026;-68
2022/01/27 03:21:31;;;;;;;171.15;34.45;;;5.90;99.90;;;;;;5016411;28;20041;-68
2022/01/27 03:23:57;;;;;;;145.82;35.30;;;5.90;99.90;;;;;;5016414;28;20092;-68
2022/01/27 03:26:23;;;;;;;182.18;37.38;;;5.90;99.90;;;;;;5016437;28;20405;-68
2022/01/27 03:28:49;;;;;;;159.70;35.88;;;5.90;99.90;;;;;;5016347;28;20029;-68
2022/01/27 03:31:15;;;;;;;145.43;34.33;;;5.90;99.90;;;;;;5016605;28;20021;-68
2022/01/27 03:33:42;;;;;;;169.65;34.00;;;5.90;99.90;;;;;;5016498;28;20030;-68
2022/01/27 03:36:08;;;;;;;155.38;33.97;;;5.90;99.90;;;;;;5016538;28;20029;-68
2022/01/27 03:38:34;;;;;;;138.32;31.92;;;5.90;99.90;;;;;;5016466;28;20026;-68
2022/01/27 03:41:04;;;;;;;143.65;32.05;;;5.90;99.90;;;;;;5016095;28;20371;-68
2022/01/27 03:43:30;;;;;;;141.52;31.85;;;5.90;99.90;;;;;;5015935;28;20022;-68
2022/01/27 03:45:55;;;;;;;172.82;32.40;;;5.90;99.90;;;;;;5016664;28;20033;-68
2022/01/27 03:48:21;;;;;;;165.38;30.65;;;5.90;99.90;;;;;;5016030;28;20390;-68
2022/01/27 03:50:46;;;;;;;153.13;30.48;;;5.90;99.90;;;;;;5016193;28;20425;-69
2022/01/27 03:53:14;;;;;;;151.98;33.13;;;5.90;99.90;;;;;;5015799;28;20107;-69
2022/01/27 03:55:39;;;;;;;162.57;29.80;;;5.90;99.90;;;;;;5016250;28;20025;-68
2022/01/27 03:58:05;;;;;;;136.32;28.20;;;5.90;99.90;;;;;;5016111;28;20030;-68
2022/01/27 04:00:31;;;;;;;135.45;27.83;;;5.90;99.90;;;;;;5015817;28;20025;-68
2022/01/27 04:03:03;;;;;;;116.50;27.55;;;5.90;99.90;;;;;;5016241;28;20026;-70
2022/01/27 04:05:34;;;;;;;113.38;24.15;;;5.90;99.90;;;;;;5015489;28;20026;-70
2022/01/27 04:08:00;;;;;;;111.50;27.13;;;5.90;99.90;;;;;;5016257;28;20026;-70
2022/01/27 04:10:26;;;;;;;104.05;23.75;;;5.90;99.90;;;;;;5015644;28;20033;-71
2022/01/27 04:12:51;;;;;;;103.82;23.73;;;6.00;99.90;;;;;;5015617;28;20029;-71
2022/01/27 04:15:17;;;;;;;120.13;22.80;;;6.00;99.90;;;;;;5015482;28;20109;-71
2022/01/27 04:17:43;;;;;;;113.97;27.75;;;6.00;99.90;;;;;;5015752;28;20033;-71
2022/01/27 04:20:09;;;;;;;120.93;28.02;;;6.00;99.90;;;;;;5015713;28;20025;-71
2022/01/27 04:22:34;;;;;;;113.20;27.00;;;6.00;99.90;;;;;;5015281;28;20034;-71
2022/01/27 04:25:00;;;;;;;114.65;26.02;;;6.00;99.90;;;;;;5015397;28;20117;-71
2022/01/27 04:27:30;;;;;;;124.50;26.05;;;6.00;99.90;;;;;;5015341;28;20029;-71
2022/01/27 04:29:56;;;;;;;106.18;24.90;;;6.00;99.90;;;;;;5015579;28;20026;-71
2022/01/27 04:32:27;;;;;;;94.65;24.48;;;6.00;99.90;;;;;;5015404;28;20029;-71
2022/01/27 04:34:59;;;;;;;109.35;26.13;;;6.10;99.90;;;;;;5015678;28;20026;-71
2022/01/27 04:37:26;;;;;;;103.50;26.15;;;6.00;99.90;;;;;;5015140;28;20022;-71
2022/01/27 04:40:06;;;;;;;106.90;26.75;;;6.10;99.90;;;;;;5015294;28;20026;-71
2022/01/27 04:42:58;;;;;;;96.28;28.33;;;6.10;99.90;;;;;;5014972;28;20129;-71
2022/01/27 04:45:25;;;;;;;80.88;23.48;;;6.10;99.90;;;;;;5014155;28;20069;-70
2022/01/27 04:47:56;;;;;;;116.70;26.77;;;6.10;99.90;;;;;;5014962;28;20026;-70
2022/01/27 04:50:22;;;;;;;114.32;28.80;;;6.10;99.90;;;;;;5015144;28;20018;-70
2022/01/27 04:52:50;;;;;;;88.35;24.75;;;6.10;99.90;;;;;;5014850;28;20041;-70
2022/01/27 04:55:18;;;;;;;111.32;28.20;;;6.10;99.90;;;;;;5014711;28;20385;-70
2022/01/27 04:57:45;;;;;;;124.70;32.05;;;6.10;99.90;;;;;;5014713;28;20105;-70
2022/01/27 05:00:14;;;;;;;115.85;27.73;;;6.20;99.90;;;;;;5014968;28;20026;-70
2022/01/27 05:02:46;;;;;;;109.35;29.33;;;6.10;99.90;;;;;;5014828;28;20029;-70
2022/01/27 05:05:12;;;;;;;124.75;30.40;;;6.10;99.90;;;;;;5014830;28;20087;-70
2022/01/27 05:07:38;;;;;;;127.68;30.60;;;6.10;99.90;;;;;;5014817;28;20054;-70
2022/01/27 05:10:11;;;;;;;159.35;32.75;;;6.10;99.90;;;;;;5014506;28;20026;-71
2022/01/27 05:12:46;;;;;;;137.00;33.58;;;6.20;99.90;;;;;;5014501;28;20022;-71
2022/01/27 05:15:12;;;;;;;139.32;30.60;;;6.20;99.90;;;;;;5014446;28;20030;-71
2022/01/27 05:17:37;;;;;;;146.32;30.90;;;6.20;99.90;;;;;;5013863;28;20028;-71
2022/01/27 05:20:04;;;;;;;129.02;31.60;;;6.20;99.90;;;;;;5014369;28;20477;-71
2022/01/27 05:22:31;;;;;;;154.60;30.67;;;6.20;99.90;;;;;;5014880;28;20370;-71
2022/01/27 05:24:57;;;;;;;156.25;31.35;;;6.20;99.90;;;;;;5014184;28;20022;-71
2022/01/27 05:27:23;;;;;;;140.75;30.83;;;6.20;99.90;;;;;;5014233;28;20076;-71
2022/01/27 05:29:49;;;;;;;172.65;30.98;;;6.20;99.90;;;;;;5014185;28;20076;-71
2022/01/27 05:32:14;;;;;;;157.48;30.73;;;6.20;99.90;;;;;;5014141;28;20389;-71
2022/01/27 05:34:40;;;;;;;149.88;29.75;;;6.20;99.90;;;;;;5014040;28;20029;-68
2022/01/27 05:37:05;;;;;;;141.43;28.00;;;6.30;99.90;;;;;;5014059;28;20029;-68
2022/01/27 05:39:31;;;;;;;147.77;30.83;;;6.30;99.90;;;;;;5014033;28;20034;-68
2022/01/27 05:41:56;;;;;;;159.20;29.25;;;6.30;99.90;;;;;;5013928;28;20084;-68
2022/01/27 05:44:22;;;;;;;179.13;29.75;;;6.30;99.90;;;;;;5013786;28;20502;-68
2022/01/27 05:46:47;;;;;;;157.40;31.25;;;6.30;99.90;;;;;;5013901;28;20524;-69
2022/01/27 05:49:13;;;;;;;151.07;29.33;;;6.40;99.90;;;;;;5014136;28;20462;-68
2022/01/27 05:51:38;;;;;;;163.18;29.10;;;6.40;99.90;;;;;;5013835;28;20032;-68
2022/01/27 05:54:04;;;;;;;157.23;29.73;;;6.40;99.90;;;;;;5014001;28;20482;-68
2022/01/27 05:56:30;;;;;;;171.10;28.92;;;6.40;99.90;;;;;;5013774;28;20025;-68
2022/01/27 05:58:55;;;;;;;141.93;31.83;;;6.40;99.90;;;;;;5013727;28;20056;-68
2022/01/27 06:01:21;;;;;;;135.52;27.55;;;6.40;99.90;;;;;;5013651;28;20025;-68
2022/01/27 06:03:46;;;;;;;160.35;30.40;;;6.50;99.90;;;;;;5013652;28;20018;-68
2022/01/27 06:06:12;;;;;;;150.02;27.48;;;6.50;99.90;;;;;;5013704;28;20469;-68
2022/01/27 06:08:37;;;;;;;129.98;28.67;;;6.60;99.90;;;;;;5013614;28;20026;-68
2022/01/27 06:11:03;;;;;;;161.63;27.67;;;6.60;99.90;;;;;;5013657;28;20026;-68
2022/01/27 06:13:29;;;;;;;144.05;26.45;;;6.60;99.90;;;;;;5013522;28;20014;-68
2022/01/27 06:15:55;;;;;;;116.07;25.15;;;6.60;99.90;;;;;;5013856;28;20479;-68
2022/01/27 06:18:20;;;;;;;132.43;27.77;;;6.60;99.90;;;;;;5013544;28;20026;-68
2022/01/27 06:20:46;;;;;;;158.75;25.92;;;6.70;99.90;;;;;;5013771;28;20363;-68
2022/01/27 06:23:13;;;;;;;148.07;24.02;;;6.70;99.90;;;;;;5013337;28;20029;-69
2022/01/27 06:25:39;;;;;;;139.70;25.35;;;6.70;99.90;;;;;;5014007;28;20026;-68
2022/01/27 06:28:04;;;;;;;136.88;23.83;;;6.70;99.90;;;;;;5013477;28;20045;-68
2022/01/27 06:30:34;;;;;;;124.05;23.42;;;6.80;99.90;;;;;;5016534;28;20022;-68
2022/01/27 06:33:03;;;;;;;147.38;25.33;;;6.80;99.90;;;;;;5018004;28;20084;-68
2022/01/27 06:35:29;;;;;;;151.63;23.55;;;6.80;99.90;;;;;;5017316;28;20034;-68
2022/01/27 06:37:54;;;;;;;140.50;24.63;;;6.80;99.90;;;;;;5017350;28;20470;-68
2022/01/27 06:40:20;;;;;;;147.82;23.13;;;6.80;99.90;;;;;;5017400;28;20466;-68
2022/01/27 06:42:45;;;;;;;130.57;23.48;;;6.90;99.90;;;;;;5017153;28;20038;-72
2022/01/27 06:45:11;;;;;;;125.32;23.55;;;6.90;99.90;;;;;;5017196;28;20096;-72
2022/01/27 06:47:37;;;;;;;125.97;23.08;;;6.90;99.90;;;;;;5017187;28;20425;-72
2022/01/27 06:50:03;;;;;;;123.18;20.38;;;6.90;99.90;;;;;;5017142;28;20026;-72
2022/01/27 06:52:29;;;;;;;127.88;22.67;;;6.90;99.90;;;;;;5017145;28;20067;-72
2022/01/27 06:54:56;;;;;;;142.48;22.27;;;6.90;99.90;;;;;;5017036;28;20105;-72
2022/01/27 06:57:23;;;;;;;129.90;24.73;;;6.90;99.90;;;;;;5017049;28;20041;-72
2022/01/27 06:59:49;;;;;;;124.18;22.50;;;6.90;99.90;;;;;;5017265;28;20470;-72
2022/01/27 07:02:14;;;;;;;124.85;20.48;;;6.90;99.90;;;;;;5016872;28;20026;-72
2022/01/27 07:04:40;;;;;;;117.28;20.70;;;6.90;99.90;;;;;;5016895;28;20569;-72
2022/01/27 07:07:06;;;;;;;144.45;22.23;;;6.90;99.90;;;;;;5016929;28;20556;-72
2022/01/27 07:09:31;;;;;;;117.57;21.90;;;6.90;99.90;;;;;;5016841;28;20577;-72
2022/01/27 07:11:57;;;;;;;109.38;20.02;;;6.90;99.90;;;;;;5016793;28;20474;-72
2022/01/27 07:14:23;;;;;;;118.85;18.25;;;6.90;99.90;;;;;;5016628;28;20032;-72
2022/01/27 07:16:49;;;;;;;126.70;20.75;;;6.90;99.90;;;;;;5016638;28;20018;-72
2022/01/27 07:19:14;;;;;;;139.45;22.77;;;7.00;99.90;;;;;;5016677;28;20040;-72
2022/01/27 07:21:40;;;;;;;117.97;20.45;;;6.90;99.90;;;;;;5016521;28;20034;-72
2022/01/27 07:24:06;;;;;;;111.13;20.02;;;6.90;99.90;;;;;;5016500;28;20418;-72
2022/01/27 07:26:31;;;;;;;130.13;20.40;;;6.90;99.90;;;;;;5016726;28;20474;-72
2022/01/27 07:28:57;;;;;;;116.20;20.77;;;6.90;99.90;;;;;;5016682;28;20079;-72
2022/01/27 07:31:23;;;;;;;131.20;20.27;;;6.90;99.90;;;;;;5016423;28;20030;-72
2022/01/27 07:33:51;;;;;;;140.88;20.80;;;7.00;99.90;;;;;;5016644;28;20058;-72
2022/01/27 07:36:16;;;;;;;137.48;19.30;;;6.90;99.90;;;;;;5016554;28;20018;-72
2022/01/27 07:38:43;;;;;;;125.32;20.00;;;6.90;99.90;;;;;;5016498;28;20391;-72
2022/01/27 07:41:09;;;;;;;118.85;20.27;;;7.00;99.90;;;;;;5015766;28;20036;-72
2022/01/27 07:43:35;;;;;;;122.53;20.40;;;7.00;99.90;;;;;;5016137;28;20044;-71
2022/01/27 07:46:00;;;;;;;139.18;23.55;;;7.00;99.90;;;;;;5016428;28;20104;-72
2022/01/27 07:48:27;;;;;;;137.82;20.67;;;7.00;99.90;;;;;;4998532;28;20072;-71
2022/01/27 07:50:53;;;;;;;125.72;18.60;;;7.00;99.90;;;;;;5016186;28;20030;-72
2022/01/27 07:53:18;;;;;;;120.90;19.33;;;7.00;99.90;;;;;;5016081;28;20030;-71
2022/01/27 07:55:44;;;;;;;102.22;17.70;;;7.00;99.90;;;;;;5016354;28;20092;-71
2022/01/27 07:58:10;;;;;;;134.63;17.38;;;7.00;99.90;;;;;;5015956;28;20041;-72
2022/01/27 08:00:36;;;;;;;124.05;18.85;;;7.00;99.90;;;;;;5015950;28;20547;-72
2022/01/27 08:03:03;;;;;;;94.78;15.70;;;7.00;99.90;;;;;;5016348;28;20022;-72
2022/01/27 08:05:28;;;;;;;89.07;15.38;;;7.00;99.90;;;;;;5015810;28;20033;-72
2022/01/27 08:07:54;;;;;;;106.15;15.50;;;7.10;99.90;;;;;;5015773;28;20026;-72
2022/01/27 08:10:19;;;;;;;85.03;13.73;;;7.10;99.90;;;;;;5015985;28;20537;-72
2022/01/27 08:12:45;;;;;;;98.15;17.60;;;7.10;99.90;;;;;;5015559;28;20030;-72
2022/01/27 08:15:12;;;;;;;123.70;16.75;;;7.20;99.90;;;;;;5015835;28;20061;-72
2022/01/27 08:17:38;;;;;;;92.05;15.00;;;7.20;99.90;;;;;;5016639;28;20394;-72
2022/01/27 08:20:05;;;;;;;115.47;15.80;;;7.30;99.90;;;;;;5015630;28;20433;-72
2022/01/27 08:22:32;;;;;;;85.80;13.75;;;7.30;99.90;;;;;;5015383;28;20056;-72
2022/01/27 08:24:57;;;;;;;99.30;15.55;;;7.40;99.90;;;;;;5015327;28;20029;-72
2022/01/27 08:27:27;;;;;;;103.10;14.10;;;7.40;99.90;;;;;;5015607;28;20026;-72
2022/01/27 08:29:58;;;;;;;82.15;14.27;;;7.40;99.90;;;;;;5015537;28;20022;-72
2022/01/27 08:32:34;;;;;;;100.47;14.60;;;7.50;99.90;;;;;;5015302;28;20026;-72
2022/01/27 08:34:59;;;;;;;99.10;13.20;;;7.50;99.90;;;;;;5015282;28;20025;-72
2022/01/27 08:37:25;;;;;;;72.95;12.18;;;7.50;99.90;;;;;;5015130;28;20478;-72
2022/01/27 08:39:51;;;;;;;91.47;13.98;;;7.50;99.90;;;;;;5015059;28;20123;-72
2022/01/27 08:42:17;;;;;;;87.28;13.30;;;7.40;99.90;;;;;;5015164;28;20038;-72
2022/01/27 08:44:43;;;;;;;101.45;12.13;;;7.40;99.90;;;;;;5069942;23;20034;-68
2022/01/27 08:47:11;;;;;;;96.78;12.43;;;7.40;99.90;;;;;;5014748;28;20105;-68
2022/01/27 08:49:37;;;;;;;87.05;13.05;;;7.40;99.90;;;;;;5014782;28;20432;-69
2022/01/27 08:52:03;;;;;;;83.32;12.80;;;7.50;99.90;;;;;;5014001;28;20022;-68
2022/01/27 08:54:28;;;;;;;93.22;13.88;;;7.50;99.90;;;;;;5014777;28;20080;-68
2022/01/27 08:56:54;;;;;;;71.50;12.20;;;7.50;99.90;;;;;;5014727;28;20075;-69
2022/01/27 08:59:20;;;;;;;76.60;10.50;;;7.50;99.90;;;;;;5014786;28;20030;-68
2022/01/27 09:01:46;;;;;;;79.00;11.30;;;7.50;99.90;;;;;;5015281;28;20400;-68
2022/01/27 09:04:12;;;;;;;86.50;12.68;;;7.60;99.90;;;;;;5014634;28;20041;-68
2022/01/27 09:06:38;;;;;;;84.15;11.98;;;7.60;99.90;;;;;;5014683;28;20017;-68
2022/01/27 09:09:05;;;;;;;86.13;12.65;;;7.60;99.90;;;;;;5014641;28;20026;-68
2022/01/27 09:11:31;;;;;;;74.30;10.75;;;7.60;99.90;;;;;;5014815;28;20466;-68
2022/01/27 09:13:58;;;;;;;80.65;12.02;;;7.70;99.90;;;;;;5014491;28;20073;-68
2022/01/27 09:16:28;;;;;;;73.28;13.15;;;7.60;99.90;;;;;;5014772;28;20029;-68
2022/01/27 09:18:57;;;;;;;101.93;12.40;;;7.70;99.90;;;;;;5014751;28;20026;-68
2022/01/27 09:21:23;;;;;;;91.88;12.50;;;7.70;99.90;;;;;;5014600;28;20029;-68
2022/01/27 09:23:50;;;;;;;74.18;10.80;;;7.70;99.90;;;;;;5014545;28;20101;-67
2022/01/27 09:29:00;;;;;;;89.93;11.52;;;7.80;99.90;;;;;;5014639;28;20068;-68
2022/01/27 09:31:25;;;;;;;80.75;10.93;;;7.80;99.90;;;;;;5014232;28;20022;-68
2022/01/27 09:33:51;;;;;;;82.25;10.57;;;7.70;99.90;;;;;;5014323;28;20022;-67
2022/01/27 09:36:17;;;;;;;86.13;13.07;;;7.60;99.90;;;;;;5014192;28;20038;-68
2022/01/27 09:38:42;;;;;;;115.93;13.13;;;7.60;99.90;;;;;;5014167;28;20018;-68
2022/01/27 09:41:10;;;;;;;84.05;11.77;;;7.60;99.90;;;;;;5014064;28;20022;-67
2022/01/27 09:43:36;;;;;;;97.18;12.38;;;7.70;99.90;;;;;;5014296;28;20158;-67
2022/01/27 09:46:06;;;;;;;77.75;10.60;;;7.70;99.90;;;;;;5013805;28;20033;-67
2022/01/27 09:48:37;;;;;;;93.50;12.00;;;7.70;99.90;;;;;;5014147;28;20033;-67
2022/01/27 09:51:25;;;;;;;88.57;10.65;;;7.70;99.90;;;;;;5014510;28;20029;-67
2022/01/27 09:53:53;;;;;;;88.78;12.63;;;7.70;99.90;;;;;;5013827;28;20029;-68
2022/01/27 09:56:20;;;;;;;104.50;13.30;;;7.80;99.90;;;;;;5014106;28;20514;-68
2022/01/27 09:58:46;;;;;;;95.07;12.85;;;7.90;99.90;;;;;;5014099;28;20029;-68
2022/01/27 10:01:11;;;;;;;86.18;12.10;;;8.00;99.90;;;;;;5013771;28;20026;-68
2022/01/27 10:04:00;;;;;;;81.55;10.40;;;8.00;99.90;;;;;;5013479;28;20084;-67
2022/01/27 10:06:30;;;;;;;94.18;12.20;;;8.00;99.90;;;;;;5013804;28;20022;-67
2022/01/27 10:09:11;;;;;;;99.65;11.15;;;8.00;99.90;;;;;;5013999;28;20025;-67
2022/01/27 10:11:36;;;;;;;67.05;12.85;;;8.00;99.90;;;;;;5014000;28;20436;-68
2022/01/27 10:14:32;;;;;;;86.68;10.90;;;8.10;99.90;;;;;;5013623;28;20026;-68
2022/01/27 10:17:02;;;;;;;74.20;10.98;;;8.10;99.90;;;;;;5013913;28;20497;-68
2022/01/27 10:19:29;;;;;;;87.57;12.38;;;8.00;99.90;;;;;;5013904;28;20076;-68
2022/01/27 10:22:04;;;;;;;80.95;10.98;;;8.00;99.90;;;;;;5013720;28;20022;-68
2022/01/27 10:24:31;;;;;;;84.90;10.98;;;8.00;99.90;;;;;;5013797;28;20045;-68
2022/01/27 10:27:55;;;;;;;95.38;12.10;;;8.10;99.90;;;;;;5013771;28;20118;-68
2022/01/27 10:32:55;;;;;;;61.00;8.48;;;8.00;99.90;;;;;;5013662;28;20030;-68
2022/01/27 10:35:25;;;;;;;64.75;9.52;;;8.10;99.90;;;;;;5013715;28;20116;-68
2022/01/27 10:37:50;;;;;;;66.35;9.45;;;8.10;99.90;;;;;;5014034;28;20022;-68
2022/01/27 10:40:32;;;;;;;86.95;9.55;;;8.10;99.90;;;;;;5013392;28;20524;-68
2022/01/27 10:43:21;;;;;;;69.32;8.98;;;8.20;99.90;;;;;;5013289;28;20130;-68
2022/01/27 10:46:06;;;;;;;73.25;10.10;;;8.30;99.90;;;;;;5013140;28;20038;-67
2022/01/27 10:48:34;;;;;;;51.95;8.90;;;8.20;99.90;;;;;;5013875;28;20355;-68
2022/01/27 10:51:15;;;;;;;70.05;9.88;;;8.20;99.90;;;;;;5013251;28;20550;-68
2022/01/27 10:53:55;;;;;;;77.13;10.00;;;8.20;99.90;;;;;;5013272;28;20022;-67
2022/01/27 10:56:27;;;;;;;60.55;7.40;;;8.20;99.90;;;;;;5013559;28;20026;-68
2022/01/27 10:58:54;;;;;;;64.72;11.15;;;8.20;99.90;;;;;;5013504;28;20018;-68
2022/01/27 11:01:40;;;;;;;54.15;8.60;;;8.20;99.90;;;;;;5013115;28;20466;-68
2022/01/27 11:04:08;;;;;;;56.25;7.70;;;8.20;99.90;;;;;;5013484;28;20486;-68
2022/01/27 11:06:35;;;;;;;72.93;9.55;;;8.20;99.90;;;;;;5013459;28;20030;-68
2022/01/27 11:09:08;;;;;;;66.68;8.35;;;8.20;99.90;;;;;;5013144;28;20026;-68
2022/01/27 11:11:36;;;;;;;54.85;8.05;;;8.30;99.90;;;;;;5013451;28;20101;-68
2022/01/27 11:14:03;;;;;;;61.15;7.50;;;8.30;99.90;;;;;;5013001;28;20163;-68
2022/01/27 11:16:36;;;;;;;50.38;6.50;;;8.30;99.90;;;;;;5016057;28;20056;-68
2022/01/27 11:21:40;;;;;;;67.90;7.35;;;8.10;99.90;;;;;;5017137;28;20120;-68
2022/01/27 11:24:16;;;;;;;49.63;8.27;;;8.10;99.90;;;;;;4998970;28;20021;-68
2022/01/27 11:26:45;;;;;;;70.97;9.05;;;8.10;99.90;;;;;;5016733;28;20425;-68
2022/01/27 11:29:12;;;;;;;44.75;7.43;;;8.20;99.90;;;;;;5016490;28;20022;-68
2022/01/27 11:32:14;;;;;;;60.80;9.98;;;8.20;99.90;;;;;;5016906;28;20034;-68
2022/01/27 11:34:44;;;;;;;62.13;8.25;;;8.20;99.90;;;;;;5016514;28;20025;-68
2022/01/27 11:37:10;;;;;;;63.15;9.20;;;8.20;99.90;;;;;;5016630;28;20026;-68
2022/01/27 11:39:54;;;;;;;70.45;9.07;;;8.20;99.90;;;;;;5016877;28;20478;-67
2022/01/27 11:42:37;;;;;;;57.55;9.18;;;8.20;99.90;;;;;;5016159;28;20045;-67
2022/01/27 11:45:31;;;;;;;45.45;7.53;;;8.20;99.90;;;;;;5016145;28;20081;-68
2022/01/27 11:48:09;;;;;;;;;;;8.20;99.90;;;;;;5012633;28;20034;-68
2022/01/27 11:50:58;;;;;;;44.92;5.78;;;8.10;99.90;;;;;;5016936;28;19905;-68
2022/01/27 11:53:49;;;;;;;44.42;7.78;;;8.20;99.90;;;;;;5016137;28;20056;-68
2022/01/27 11:56:24;;;;;;;80.93;7.97;;;8.20;99.90;;;;;;5016364;28;20053;-68
2022/01/27 11:59:02;;;;;;;51.00;7.43;;;8.10;99.90;;;;;;4998337;28;20026;-68
2022/01/27 12:01:29;;;;;;;70.90;9.98;;;8.10;99.90;;;;;;5015824;28;20099;-67
2022/01/27 12:04:11;;;;;;;49.45;10.77;;;8.10;99.90;;;;;;5015822;28;20022;-67
2022/01/27 12:06:39;;;;;;;61.83;8.40;;;8.20;99.90;;;;;;5016092;28;20018;-67
2022/01/27 12:09:20;;;;;;;55.85;8.95;;;8.20;99.90;;;;;;5015719;28;20524;-67
2022/01/27 12:11:54;;;;;;;57.15;8.88;;;8.20;99.90;;;;;;5015683;28;20041;-67
2022/01/27 12:14:28;;;;;;;55.55;7.40;;;8.30;99.90;;;;;;5015873;28;20026;-67
2022/01/27 12:17:09;;;;;;;50.50;6.70;;;8.30;99.90;;;;;;5015760;28;20080;-68
2022/01/27 12:19:55;;;;;;;45.22;7.88;;;8.30;99.90;;;;;;5015604;28;20125;-67
2022/01/27 12:22:25;;;;;;;49.50;6.88;;;8.30;99.90;;;;;;5015744;28;20535;-67
2022/01/27 12:24:59;;;;;;;45.17;7.25;;;8.30;99.90;;;;;;5015537;28;20029;-68
2022/01/27 12:27:27;;;;;;;57.33;7.70;;;8.20;99.90;;;;;;5015479;28;20030;-68
2022/01/27 12:29:57;;;;;;;61.47;7.90;;;8.30;99.90;;;;;;5015637;28;20022;-67
2022/01/27 12:32:27;;;;;;;52.03;7.55;;;8.20;99.90;;;;;;5015491;28;20113;-67
2022/01/27 12:34:56;;;;;;;60.15;8.70;;;8.20;99.90;;;;;;5015345;28;20037;-67
2022/01/27 12:37:23;;;;;;;52.75;8.02;;;8.30;99.90;;;;;;5015498;28;20101;-67
2022/01/27 12:39:55;;;;;;;49.10;5.93;;;8.30;99.90;;;;;;5015172;28;20080;-67
2022/01/27 12:42:26;;;;;;;43.65;7.00;;;8.30;99.90;;;;;;5015614;28;20098;-67
2022/01/27 12:44:57;;;;;;;55.72;6.97;;;8.30;99.90;;;;;;5014920;28;20408;-68
2022/01/27 12:47:24;;;;;;;46.72;7.68;;;8.30;99.90;;;;;;5015060;28;20453;-68
2022/01/27 12:50:04;;;;;;;44.42;7.63;;;8.30;99.90;;;;;;5014970;28;20022;-68
2022/01/27 12:52:32;;;;;;;57.45;7.90;;;8.40;99.90;;;;;;5015236;28;20382;-68
2022/01/27 12:54:58;;;;;;;43.65;7.32;;;8.50;99.90;;;;;;5014788;28;20030;-68
2022/01/27 12:57:26;;;;;;;66.63;9.63;;;8.30;99.90;;;;;;5015441;28;20109;-68
2022/01/27 12:59:54;;;;;;;56.35;8.20;;;8.20;99.90;;;;;;5015352;28;20026;-68
2022/01/27 13:02:21;;;;;;;58.45;8.02;;;8.00;99.90;;;;;;5015253;28;20026;-68
2022/01/27 13:04:49;;;;;;;50.80;8.30;;;7.80;99.90;;;;;;5014716;28;20025;-67
2022/01/27 13:07:15;;;;;;;74.72;9.35;;;7.90;99.90;;;;;;5015748;28;20109;-67
2022/01/27 13:09:41;;;;;;;63.22;9.00;;;8.00;99.90;;;;;;5015051;28;20033;-67
2022/01/27 13:12:14;;;;;;;51.22;8.00;;;8.20;99.90;;;;;;5014877;28;20033;-67
2022/01/27 13:14:59;;;;;;;64.00;11.88;;;8.00;99.90;;;;;;5014690;28;20454;-68
2022/01/27 13:17:32;;;;;;;62.33;7.60;;;8.00;99.90;;;;;;5014529;28;20030;-68
2022/01/27 13:20:13;;;;;;;56.73;7.30;;;8.30;99.90;;;;;;5014505;28;20041;-68
2022/01/27 13:22:56;;;;;;;50.42;6.28;;;8.30;99.90;;;;;;5014633;28;20058;-68